sensor_id;sensor_type;location;lat;lon;timestamp;P1;durP1;ratioP1;P2;durP2;ratioP2
77302;SDS011;66363;49.828;7.856;2023-02-19T00:02:07;4.60;;;2.38;;
77302;SDS011;66363;49.828;7.856;2023-02-19T00:04:32;3.67;;;2.58;;
77302;SDS011;66363;49.828;7.856;2023-02-19T00:07:00;3.92;;;2.50;;
77302;SDS011;66363;49.828;7.856;2023-02-19T00:09:25;6.88;;;2.85;;
77302;SDS011;66363;49.828;7.856;2023-02-19T00:11:51;4.18;;;2.58;;
77302;SDS011;66363;49.828;7.856;2023-02-19T00:14:17;3.70;;;2.60;;
77302;SDS011;66363;49.828;7.856;2023-02-19T00:16:45;4.75;;;2.60;;
77302;SDS011;66363;49.828;7.856;2023-02-19T00:19:11;2.83;;;2.08;;
77302;SDS011;66363;49.828;7.856;2023-02-19T00:21:39;3.75;;;2.92;;
77302;SDS011;66363;49.828;7.856;2023-02-19T00:24:06;2.92;;;2.30;;
77302;SDS011;66363;49.828;7.856;2023-02-19T00:26:34;3.78;;;2.40;;
77302;SDS011;66363;49.828;7.856;2023-02-19T00:29:03;3.20;;;1.88;;
77302;SDS011;66363;49.828;7.856;2023-02-19T00:31:29;2.20;;;1.95;;
77302;SDS011;66363;49.828;7.856;2023-02-19T00:33:56;4.07;;;2.17;;
77302;SDS011;66363;49.828;7.856;2023-02-19T00:36:24;2.72;;;1.90;;
77302;SDS011;66363;49.828;7.856;2023-02-19T00:38:50;2.47;;;2.10;;
77302;SDS011;66363;49.828;7.856;2023-02-19T00:41:18;3.08;;;2.10;;
77302;SDS011;66363;49.828;7.856;2023-02-19T00:43:46;5.50;;;2.00;;
77302;SDS011;66363;49.828;7.856;2023-02-19T00:46:14;3.00;;;2.30;;
77302;SDS011;66363;49.828;7.856;2023-02-19T00:48:40;2.25;;;1.52;;
77302;SDS011;66363;49.828;7.856;2023-02-19T00:51:05;3.35;;;1.95;;
77302;SDS011;66363;49.828;7.856;2023-02-19T00:53:31;2.42;;;1.75;;
77302;SDS011;66363;49.828;7.856;2023-02-19T00:55:57;2.92;;;2.00;;
77302;SDS011;66363;49.828;7.856;2023-02-19T00:58:24;2.50;;;1.90;;
77302;SDS011;66363;49.828;7.856;2023-02-19T01:00:50;2.65;;;1.80;;
77302;SDS011;66363;49.828;7.856;2023-02-19T01:03:15;4.45;;;2.35;;
77302;SDS011;66363;49.828;7.856;2023-02-19T01:05:41;3.20;;;2.10;;
77302;SDS011;66363;49.828;7.856;2023-02-19T01:08:06;4.70;;;2.28;;
77302;SDS011;66363;49.828;7.856;2023-02-19T01:10:32;3.88;;;1.80;;
77302;SDS011;66363;49.828;7.856;2023-02-19T01:12:58;2.97;;;2.10;;
77302;SDS011;66363;49.828;7.856;2023-02-19T01:15:25;3.03;;;2.10;;
77302;SDS011;66363;49.828;7.856;2023-02-19T01:17:51;2.97;;;1.73;;
77302;SDS011;66363;49.828;7.856;2023-02-19T01:20:16;2.58;;;1.80;;
77302;SDS011;66363;49.828;7.856;2023-02-19T01:22:42;2.00;;;1.73;;
77302;SDS011;66363;49.828;7.856;2023-02-19T01:25:08;4.78;;;2.03;;
77302;SDS011;66363;49.828;7.856;2023-02-19T01:27:34;4.13;;;1.88;;
77302;SDS011;66363;49.828;7.856;2023-02-19T01:29:59;2.95;;;1.90;;
77302;SDS011;66363;49.828;7.856;2023-02-19T01:32:26;2.85;;;1.88;;
77302;SDS011;66363;49.828;7.856;2023-02-19T01:34:52;3.00;;;1.90;;
77302;SDS011;66363;49.828;7.856;2023-02-19T01:37:17;3.38;;;2.20;;
77302;SDS011;66363;49.828;7.856;2023-02-19T01:39:43;2.80;;;2.10;;
77302;SDS011;66363;49.828;7.856;2023-02-19T01:42:11;1.90;;;1.60;;
77302;SDS011;66363;49.828;7.856;2023-02-19T01:47:39;3.05;;;1.75;;
77302;SDS011;66363;49.828;7.856;2023-02-19T01:50:05;2.70;;;2.08;;
77302;SDS011;66363;49.828;7.856;2023-02-19T01:52:31;2.50;;;1.90;;
77302;SDS011;66363;49.828;7.856;2023-02-19T01:55:00;2.17;;;1.58;;
77302;SDS011;66363;49.828;7.856;2023-02-19T01:57:29;3.70;;;2.10;;
77302;SDS011;66363;49.828;7.856;2023-02-19T02:00:01;2.60;;;1.80;;
77302;SDS011;66363;49.828;7.856;2023-02-19T02:02:29;3.33;;;1.77;;
77302;SDS011;66363;49.828;7.856;2023-02-19T02:04:56;2.97;;;1.80;;
77302;SDS011;66363;49.828;7.856;2023-02-19T02:07:23;2.75;;;1.80;;
77302;SDS011;66363;49.828;7.856;2023-02-19T02:09:49;2.50;;;1.77;;
77302;SDS011;66363;49.828;7.856;2023-02-19T02:12:16;2.50;;;1.75;;
77302;SDS011;66363;49.828;7.856;2023-02-19T02:14:42;2.67;;;1.88;;
77302;SDS011;66363;49.828;7.856;2023-02-19T02:17:11;2.88;;;1.88;;
77302;SDS011;66363;49.828;7.856;2023-02-19T02:19:49;1.73;;;1.17;;
77302;SDS011;66363;49.828;7.856;2023-02-19T02:22:37;2.20;;;1.63;;
77302;SDS011;66363;49.828;7.856;2023-02-19T02:28:17;2.78;;;1.80;;
77302;SDS011;66363;49.828;7.856;2023-02-19T02:30:59;2.47;;;1.50;;
77302;SDS011;66363;49.828;7.856;2023-02-19T02:33:30;2.53;;;1.70;;
77302;SDS011;66363;49.828;7.856;2023-02-19T02:36:02;3.70;;;1.50;;
77302;SDS011;66363;49.828;7.856;2023-02-19T02:38:34;1.50;;;1.30;;
77302;SDS011;66363;49.828;7.856;2023-02-19T02:41:03;2.30;;;1.47;;
77302;SDS011;66363;49.828;7.856;2023-02-19T02:43:30;2.00;;;1.30;;
77302;SDS011;66363;49.828;7.856;2023-02-19T02:45:57;2.28;;;1.23;;
77302;SDS011;66363;49.828;7.856;2023-02-19T02:48:26;2.50;;;1.40;;
77302;SDS011;66363;49.828;7.856;2023-02-19T02:50:58;1.70;;;1.40;;
77302;SDS011;66363;49.828;7.856;2023-02-19T02:53:28;1.42;;;1.10;;
77302;SDS011;66363;49.828;7.856;2023-02-19T02:55:57;1.80;;;1.35;;
77302;SDS011;66363;49.828;7.856;2023-02-19T02:58:23;1.90;;;1.45;;
77302;SDS011;66363;49.828;7.856;2023-02-19T03:00:53;3.05;;;1.60;;
77302;SDS011;66363;49.828;7.856;2023-02-19T03:03:25;2.92;;;1.48;;
77302;SDS011;66363;49.828;7.856;2023-02-19T03:05:54;2.10;;;1.45;;
77302;SDS011;66363;49.828;7.856;2023-02-19T03:08:26;1.88;;;1.38;;
77302;SDS011;66363;49.828;7.856;2023-02-19T03:10:56;3.72;;;1.50;;
77302;SDS011;66363;49.828;7.856;2023-02-19T03:13:27;2.25;;;1.42;;
77302;SDS011;66363;49.828;7.856;2023-02-19T03:15:57;1.65;;;1.27;;
77302;SDS011;66363;49.828;7.856;2023-02-19T03:18:29;1.90;;;1.67;;
77302;SDS011;66363;49.828;7.856;2023-02-19T03:20:59;2.38;;;1.67;;
77302;SDS011;66363;49.828;7.856;2023-02-19T03:23:28;1.92;;;1.42;;
77302;SDS011;66363;49.828;7.856;2023-02-19T03:25:57;2.13;;;1.20;;
77302;SDS011;66363;49.828;7.856;2023-02-19T03:28:23;1.83;;;1.33;;
77302;SDS011;66363;49.828;7.856;2023-02-19T03:30:53;2.38;;;1.30;;
77302;SDS011;66363;49.828;7.856;2023-02-19T03:33:20;1.42;;;1.10;;
77302;SDS011;66363;49.828;7.856;2023-02-19T03:35:53;2.03;;;1.30;;
77302;SDS011;66363;49.828;7.856;2023-02-19T03:38:22;1.90;;;1.38;;
77302;SDS011;66363;49.828;7.856;2023-02-19T03:40:53;2.28;;;1.08;;
77302;SDS011;66363;49.828;7.856;2023-02-19T03:43:26;2.28;;;1.20;;
77302;SDS011;66363;49.828;7.856;2023-02-19T03:46:02;3.30;;;1.30;;
77302;SDS011;66363;49.828;7.856;2023-02-19T03:48:33;1.60;;;1.25;;
77302;SDS011;66363;49.828;7.856;2023-02-19T03:51:06;1.73;;;1.15;;
77302;SDS011;66363;49.828;7.856;2023-02-19T03:53:43;1.88;;;1.13;;
77302;SDS011;66363;49.828;7.856;2023-02-19T03:56:17;1.02;;;0.93;;
77302;SDS011;66363;49.828;7.856;2023-02-19T03:58:50;1.15;;;0.90;;
77302;SDS011;66363;49.828;7.856;2023-02-19T04:01:22;1.60;;;1.10;;
77302;SDS011;66363;49.828;7.856;2023-02-19T04:03:53;1.88;;;1.40;;
77302;SDS011;66363;49.828;7.856;2023-02-19T04:06:26;1.83;;;1.30;;
77302;SDS011;66363;49.828;7.856;2023-02-19T04:08:55;1.48;;;1.10;;
77302;SDS011;66363;49.828;7.856;2023-02-19T04:11:23;1.65;;;1.20;;
77302;SDS011;66363;49.828;7.856;2023-02-19T04:13:54;1.88;;;1.10;;
77302;SDS011;66363;49.828;7.856;2023-02-19T04:16:25;1.40;;;0.93;;
77302;SDS011;66363;49.828;7.856;2023-02-19T04:18:53;2.10;;;1.38;;
77302;SDS011;66363;49.828;7.856;2023-02-19T04:21:22;1.90;;;1.20;;
77302;SDS011;66363;49.828;7.856;2023-02-19T04:23:50;1.67;;;1.10;;
77302;SDS011;66363;49.828;7.856;2023-02-19T04:26:16;2.35;;;1.20;;
77302;SDS011;66363;49.828;7.856;2023-02-19T04:28:46;1.15;;;0.90;;
77302;SDS011;66363;49.828;7.856;2023-02-19T04:31:12;1.27;;;0.90;;
77302;SDS011;66363;49.828;7.856;2023-02-19T04:33:38;2.03;;;0.90;;
77302;SDS011;66363;49.828;7.856;2023-02-19T04:36:04;1.25;;;0.90;;
77302;SDS011;66363;49.828;7.856;2023-02-19T04:38:31;1.23;;;1.00;;
77302;SDS011;66363;49.828;7.856;2023-02-19T04:40:58;1.60;;;1.20;;
77302;SDS011;66363;49.828;7.856;2023-02-19T04:43:24;2.10;;;1.20;;
77302;SDS011;66363;49.828;7.856;2023-02-19T04:45:49;1.60;;;1.10;;
77302;SDS011;66363;49.828;7.856;2023-02-19T04:48:15;1.55;;;1.05;;
77302;SDS011;66363;49.828;7.856;2023-02-19T04:50:41;0.73;;;0.60;;
77302;SDS011;66363;49.828;7.856;2023-02-19T04:53:06;1.20;;;0.80;;
77302;SDS011;66363;49.828;7.856;2023-02-19T04:55:35;1.92;;;1.13;;
77302;SDS011;66363;49.828;7.856;2023-02-19T04:58:02;1.02;;;0.70;;
77302;SDS011;66363;49.828;7.856;2023-02-19T05:00:28;1.80;;;0.93;;
77302;SDS011;66363;49.828;7.856;2023-02-19T05:02:54;1.20;;;0.90;;
77302;SDS011;66363;49.828;7.856;2023-02-19T05:05:20;0.90;;;0.73;;
77302;SDS011;66363;49.828;7.856;2023-02-19T05:07:45;1.40;;;1.10;;
77302;SDS011;66363;49.828;7.856;2023-02-19T05:10:11;1.23;;;0.82;;
77302;SDS011;66363;49.828;7.856;2023-02-19T05:12:37;1.58;;;0.73;;
77302;SDS011;66363;49.828;7.856;2023-02-19T05:15:04;1.17;;;0.90;;
77302;SDS011;66363;49.828;7.856;2023-02-19T05:17:31;2.45;;;1.00;;
77302;SDS011;66363;49.828;7.856;2023-02-19T05:19:57;1.35;;;0.90;;
77302;SDS011;66363;49.828;7.856;2023-02-19T05:22:23;1.05;;;0.80;;
77302;SDS011;66363;49.828;7.856;2023-02-19T05:24:48;1.00;;;0.80;;
77302;SDS011;66363;49.828;7.856;2023-02-19T05:27:14;1.58;;;0.90;;
77302;SDS011;66363;49.828;7.856;2023-02-19T05:29:40;1.52;;;1.10;;
77302;SDS011;66363;49.828;7.856;2023-02-19T05:32:07;1.15;;;1.00;;
77302;SDS011;66363;49.828;7.856;2023-02-19T05:34:32;1.25;;;1.10;;
77302;SDS011;66363;49.828;7.856;2023-02-19T05:36:58;1.25;;;0.90;;
77302;SDS011;66363;49.828;7.856;2023-02-19T05:39:24;1.52;;;1.02;;
77302;SDS011;66363;49.828;7.856;2023-02-19T05:41:49;1.30;;;0.80;;
77302;SDS011;66363;49.828;7.856;2023-02-19T05:44:15;1.15;;;0.88;;
77302;SDS011;66363;49.828;7.856;2023-02-19T05:46:41;1.27;;;0.90;;
77302;SDS011;66363;49.828;7.856;2023-02-19T05:49:08;1.13;;;0.85;;
77302;SDS011;66363;49.828;7.856;2023-02-19T05:51:33;1.38;;;0.75;;
77302;SDS011;66363;49.828;7.856;2023-02-19T05:53:59;0.98;;;0.70;;
77302;SDS011;66363;49.828;7.856;2023-02-19T05:56:35;1.00;;;0.88;;
77302;SDS011;66363;49.828;7.856;2023-02-19T05:59:02;1.80;;;1.00;;
77302;SDS011;66363;49.828;7.856;2023-02-19T06:01:30;0.98;;;0.60;;
77302;SDS011;66363;49.828;7.856;2023-02-19T06:03:55;2.03;;;0.65;;
77302;SDS011;66363;49.828;7.856;2023-02-19T06:06:23;0.93;;;0.50;;
77302;SDS011;66363;49.828;7.856;2023-02-19T06:08:49;1.05;;;0.60;;
77302;SDS011;66363;49.828;7.856;2023-02-19T06:11:16;0.82;;;0.50;;
77302;SDS011;66363;49.828;7.856;2023-02-19T06:13:42;0.70;;;0.60;;
77302;SDS011;66363;49.828;7.856;2023-02-19T06:16:07;2.20;;;0.75;;
77302;SDS011;66363;49.828;7.856;2023-02-19T06:18:33;3.20;;;0.90;;
77302;SDS011;66363;49.828;7.856;2023-02-19T06:20:59;0.90;;;0.80;;
77302;SDS011;66363;49.828;7.856;2023-02-19T06:23:27;1.02;;;0.80;;
77302;SDS011;66363;49.828;7.856;2023-02-19T06:25:53;2.17;;;0.90;;
77302;SDS011;66363;49.828;7.856;2023-02-19T06:28:19;2.10;;;0.70;;
77302;SDS011;66363;49.828;7.856;2023-02-19T06:30:45;2.78;;;0.82;;
77302;SDS011;66363;49.828;7.856;2023-02-19T06:33:10;1.38;;;1.00;;
77302;SDS011;66363;49.828;7.856;2023-02-19T06:35:36;1.38;;;0.80;;
77302;SDS011;66363;49.828;7.856;2023-02-19T06:38:01;1.50;;;0.73;;
77302;SDS011;66363;49.828;7.856;2023-02-19T06:40:28;1.45;;;0.90;;
77302;SDS011;66363;49.828;7.856;2023-02-19T06:42:54;1.95;;;0.85;;
77302;SDS011;66363;49.828;7.856;2023-02-19T06:45:20;1.63;;;0.90;;
77302;SDS011;66363;49.828;7.856;2023-02-19T06:47:45;2.90;;;0.98;;
77302;SDS011;66363;49.828;7.856;2023-02-19T06:50:11;1.02;;;0.70;;
77302;SDS011;66363;49.828;7.856;2023-02-19T06:52:36;4.93;;;1.80;;
77302;SDS011;66363;49.828;7.856;2023-02-19T06:55:02;1.10;;;0.50;;
77302;SDS011;66363;49.828;7.856;2023-02-19T06:57:29;2.28;;;1.08;;
77302;SDS011;66363;49.828;7.856;2023-02-19T06:59:55;2.28;;;0.95;;
77302;SDS011;66363;49.828;7.856;2023-02-19T07:02:21;3.75;;;0.93;;
77302;SDS011;66363;49.828;7.856;2023-02-19T07:04:46;1.52;;;0.70;;
77302;SDS011;66363;49.828;7.856;2023-02-19T07:07:12;3.28;;;1.20;;
77302;SDS011;66363;49.828;7.856;2023-02-19T07:09:38;1.67;;;1.00;;
77302;SDS011;66363;49.828;7.856;2023-02-19T07:12:03;3.78;;;1.20;;
77302;SDS011;66363;49.828;7.856;2023-02-19T07:16:57;5.40;;;1.25;;
77302;SDS011;66363;49.828;7.856;2023-02-19T07:19:22;2.75;;;0.77;;
77302;SDS011;66363;49.828;7.856;2023-02-19T07:21:48;2.70;;;1.00;;
77302;SDS011;66363;49.828;7.856;2023-02-19T07:24:13;1.48;;;1.00;;
77302;SDS011;66363;49.828;7.856;2023-02-19T07:26:39;1.98;;;0.90;;
77302;SDS011;66363;49.828;7.856;2023-02-19T07:29:05;1.75;;;0.60;;
77302;SDS011;66363;49.828;7.856;2023-02-19T07:31:32;1.23;;;0.95;;
77302;SDS011;66363;49.828;7.856;2023-02-19T07:33:57;2.03;;;0.93;;
77302;SDS011;66363;49.828;7.856;2023-02-19T07:36:23;1.60;;;1.10;;
77302;SDS011;66363;49.828;7.856;2023-02-19T07:38:52;1.52;;;0.85;;
77302;SDS011;66363;49.828;7.856;2023-02-19T07:41:18;4.05;;;1.38;;
77302;SDS011;66363;49.828;7.856;2023-02-19T07:43:43;2.25;;;1.08;;
77302;SDS011;66363;49.828;7.856;2023-02-19T07:46:09;2.83;;;1.00;;
77302;SDS011;66363;49.828;7.856;2023-02-19T07:48:39;2.45;;;0.90;;
77302;SDS011;66363;49.828;7.856;2023-02-19T07:51:06;3.63;;;1.25;;
77302;SDS011;66363;49.828;7.856;2023-02-19T07:53:35;3.35;;;1.05;;
77302;SDS011;66363;49.828;7.856;2023-02-19T07:56:00;2.45;;;0.90;;
77302;SDS011;66363;49.828;7.856;2023-02-19T07:58:27;3.20;;;1.30;;
77302;SDS011;66363;49.828;7.856;2023-02-19T08:00:53;3.38;;;0.93;;
77302;SDS011;66363;49.828;7.856;2023-02-19T08:03:19;2.67;;;1.00;;
77302;SDS011;66363;49.828;7.856;2023-02-19T08:05:46;1.65;;;0.93;;
77302;SDS011;66363;49.828;7.856;2023-02-19T08:08:13;2.25;;;1.35;;
77302;SDS011;66363;49.828;7.856;2023-02-19T08:10:39;8.13;;;1.92;;
77302;SDS011;66363;49.828;7.856;2023-02-19T08:13:05;1.60;;;0.95;;
77302;SDS011;66363;49.828;7.856;2023-02-19T08:15:31;2.67;;;0.85;;
77302;SDS011;66363;49.828;7.856;2023-02-19T08:17:57;2.28;;;1.20;;
77302;SDS011;66363;49.828;7.856;2023-02-19T08:20:22;3.13;;;1.20;;
77302;SDS011;66363;49.828;7.856;2023-02-19T08:22:49;2.28;;;1.25;;
77302;SDS011;66363;49.828;7.856;2023-02-19T08:25:15;4.32;;;1.50;;
77302;SDS011;66363;49.828;7.856;2023-02-19T08:27:41;2.17;;;1.02;;
77302;SDS011;66363;49.828;7.856;2023-02-19T08:30:07;2.17;;;1.20;;
77302;SDS011;66363;49.828;7.856;2023-02-19T08:32:33;2.03;;;1.20;;
77302;SDS011;66363;49.828;7.856;2023-02-19T08:34:59;2.88;;;0.73;;
77302;SDS011;66363;49.828;7.856;2023-02-19T08:37:24;3.38;;;1.08;;
77302;SDS011;66363;49.828;7.856;2023-02-19T08:39:51;5.72;;;1.30;;
77302;SDS011;66363;49.828;7.856;2023-02-19T08:42:17;2.95;;;1.17;;
77302;SDS011;66363;49.828;7.856;2023-02-19T08:44:42;5.10;;;1.17;;
77302;SDS011;66363;49.828;7.856;2023-02-19T08:47:08;3.63;;;1.40;;
77302;SDS011;66363;49.828;7.856;2023-02-19T08:49:34;1.55;;;1.15;;
77302;SDS011;66363;49.828;7.856;2023-02-19T08:51:59;3.10;;;1.08;;
77302;SDS011;66363;49.828;7.856;2023-02-19T08:54:25;3.78;;;1.00;;
77302;SDS011;66363;49.828;7.856;2023-02-19T08:56:52;2.67;;;1.20;;
77302;SDS011;66363;49.828;7.856;2023-02-19T08:59:18;2.65;;;0.85;;
77302;SDS011;66363;49.828;7.856;2023-02-19T09:01:43;1.33;;;1.00;;
77302;SDS011;66363;49.828;7.856;2023-02-19T09:04:09;6.10;;;1.13;;
77302;SDS011;66363;49.828;7.856;2023-02-19T09:06:36;3.30;;;1.15;;
77302;SDS011;66363;49.828;7.856;2023-02-19T09:09:02;2.08;;;1.45;;
77302;SDS011;66363;49.828;7.856;2023-02-19T09:11:27;2.38;;;0.98;;
77302;SDS011;66363;49.828;7.856;2023-02-19T09:13:55;1.90;;;1.10;;
77302;SDS011;66363;49.828;7.856;2023-02-19T09:16:21;4.15;;;1.08;;
77302;SDS011;66363;49.828;7.856;2023-02-19T09:18:46;3.50;;;1.05;;
77302;SDS011;66363;49.828;7.856;2023-02-19T09:21:12;3.75;;;1.63;;
77302;SDS011;66363;49.828;7.856;2023-02-19T09:23:38;2.30;;;1.10;;
77302;SDS011;66363;49.828;7.856;2023-02-19T09:26:04;3.35;;;1.40;;
77302;SDS011;66363;49.828;7.856;2023-02-19T09:28:31;3.20;;;1.27;;
77302;SDS011;66363;49.828;7.856;2023-02-19T09:31:03;3.67;;;1.15;;
77302;SDS011;66363;49.828;7.856;2023-02-19T09:33:29;7.25;;;1.33;;
77302;SDS011;66363;49.828;7.856;2023-02-19T09:35:57;1.63;;;0.95;;
77302;SDS011;66363;49.828;7.856;2023-02-19T09:38:23;5.20;;;1.55;;
77302;SDS011;66363;49.828;7.856;2023-02-19T09:40:48;5.18;;;1.45;;
77302;SDS011;66363;49.828;7.856;2023-02-19T09:43:15;3.72;;;1.75;;
77302;SDS011;66363;49.828;7.856;2023-02-19T09:45:43;2.97;;;1.27;;
77302;SDS011;66363;49.828;7.856;2023-02-19T09:48:11;2.47;;;0.77;;
77302;SDS011;66363;49.828;7.856;2023-02-19T09:50:37;4.05;;;1.60;;
77302;SDS011;66363;49.828;7.856;2023-02-19T09:53:09;1.40;;;0.90;;
77302;SDS011;66363;49.828;7.856;2023-02-19T09:55:39;2.45;;;1.00;;
77302;SDS011;66363;49.828;7.856;2023-02-19T09:58:08;2.88;;;1.10;;
77302;SDS011;66363;49.828;7.856;2023-02-19T10:00:45;2.83;;;0.90;;
77302;SDS011;66363;49.828;7.856;2023-02-19T10:03:21;3.65;;;1.00;;
77302;SDS011;66363;49.828;7.856;2023-02-19T10:05:50;3.90;;;1.40;;
77302;SDS011;66363;49.828;7.856;2023-02-19T10:08:18;5.57;;;1.45;;
77302;SDS011;66363;49.828;7.856;2023-02-19T10:10:44;5.68;;;1.58;;
77302;SDS011;66363;49.828;7.856;2023-02-19T10:13:11;3.15;;;1.08;;
77302;SDS011;66363;49.828;7.856;2023-02-19T10:18:09;3.95;;;1.20;;
77302;SDS011;66363;49.828;7.856;2023-02-19T10:20:36;4.97;;;1.30;;
77302;SDS011;66363;49.828;7.856;2023-02-19T10:23:03;4.05;;;1.63;;
77302;SDS011;66363;49.828;7.856;2023-02-19T10:25:30;3.80;;;1.50;;
77302;SDS011;66363;49.828;7.856;2023-02-19T10:27:57;3.22;;;1.30;;
77302;SDS011;66363;49.828;7.856;2023-02-19T10:30:24;2.55;;;1.15;;
77302;SDS011;66363;49.828;7.856;2023-02-19T10:32:57;3.10;;;1.30;;
77302;SDS011;66363;49.828;7.856;2023-02-19T10:35:27;2.97;;;1.30;;
77302;SDS011;66363;49.828;7.856;2023-02-19T10:37:55;2.30;;;1.38;;
77302;SDS011;66363;49.828;7.856;2023-02-19T10:40:22;2.75;;;2.03;;
77302;SDS011;66363;49.828;7.856;2023-02-19T10:42:51;3.53;;;1.85;;
77302;SDS011;66363;49.828;7.856;2023-02-19T10:45:20;3.30;;;1.30;;
77302;SDS011;66363;49.828;7.856;2023-02-19T10:47:50;2.92;;;1.10;;
77302;SDS011;66363;49.828;7.856;2023-02-19T10:50:19;4.13;;;1.50;;
77302;SDS011;66363;49.828;7.856;2023-02-19T10:52:50;1.95;;;1.15;;
77302;SDS011;66363;49.828;7.856;2023-02-19T10:55:25;3.88;;;1.80;;
77302;SDS011;66363;49.828;7.856;2023-02-19T10:57:54;4.97;;;1.60;;
77302;SDS011;66363;49.828;7.856;2023-02-19T11:00:21;3.38;;;1.30;;
77302;SDS011;66363;49.828;7.856;2023-02-19T11:02:47;3.97;;;1.70;;
77302;SDS011;66363;49.828;7.856;2023-02-19T11:05:14;1.90;;;1.30;;
77302;SDS011;66363;49.828;7.856;2023-02-19T11:07:43;1.85;;;1.17;;
77302;SDS011;66363;49.828;7.856;2023-02-19T11:10:18;3.33;;;1.65;;
77302;SDS011;66363;49.828;7.856;2023-02-19T11:12:51;4.47;;;1.75;;
77302;SDS011;66363;49.828;7.856;2023-02-19T11:15:19;2.90;;;1.77;;
77302;SDS011;66363;49.828;7.856;2023-02-19T11:17:53;4.40;;;1.38;;
77302;SDS011;66363;49.828;7.856;2023-02-19T11:20:19;2.00;;;1.25;;
77302;SDS011;66363;49.828;7.856;2023-02-19T11:22:45;3.58;;;1.92;;
77302;SDS011;66363;49.828;7.856;2023-02-19T11:25:16;3.75;;;1.40;;
77302;SDS011;66363;49.828;7.856;2023-02-19T11:27:53;3.70;;;1.58;;
77302;SDS011;66363;49.828;7.856;2023-02-19T11:30:30;4.20;;;1.70;;
77302;SDS011;66363;49.828;7.856;2023-02-19T11:33:03;3.28;;;1.52;;
77302;SDS011;66363;49.828;7.856;2023-02-19T11:35:44;2.50;;;1.20;;
77302;SDS011;66363;49.828;7.856;2023-02-19T11:40:38;4.20;;;1.23;;
77302;SDS011;66363;49.828;7.856;2023-02-19T11:43:13;4.75;;;1.58;;
77302;SDS011;66363;49.828;7.856;2023-02-19T11:45:49;3.92;;;1.80;;
77302;SDS011;66363;49.828;7.856;2023-02-19T11:48:32;2.85;;;1.63;;
77302;SDS011;66363;49.828;7.856;2023-02-19T11:54:18;4.78;;;1.90;;
77302;SDS011;66363;49.828;7.856;2023-02-19T11:56:58;4.78;;;1.65;;
77302;SDS011;66363;49.828;7.856;2023-02-19T11:59:32;3.30;;;1.30;;
77302;SDS011;66363;49.828;7.856;2023-02-19T12:05:21;2.13;;;1.20;;
77302;SDS011;66363;49.828;7.856;2023-02-19T12:08:11;4.90;;;1.70;;
77302;SDS011;66363;49.828;7.856;2023-02-19T12:10:52;3.58;;;1.25;;
77302;SDS011;66363;49.828;7.856;2023-02-19T12:13:34;4.60;;;1.55;;
77302;SDS011;66363;49.828;7.856;2023-02-19T12:16:13;2.70;;;1.25;;
77302;SDS011;66363;49.828;7.856;2023-02-19T12:19:01;3.58;;;2.30;;
77302;SDS011;66363;49.828;7.856;2023-02-19T12:21:41;3.45;;;1.38;;
77302;SDS011;66363;49.828;7.856;2023-02-19T12:24:42;3.00;;;1.58;;
77302;SDS011;66363;49.828;7.856;2023-02-19T12:27:22;3.58;;;1.58;;
77302;SDS011;66363;49.828;7.856;2023-02-19T12:30:01;2.85;;;1.35;;
77302;SDS011;66363;49.828;7.856;2023-02-19T12:32:51;3.42;;;1.10;;
77302;SDS011;66363;49.828;7.856;2023-02-19T12:35:33;4.55;;;1.65;;
77302;SDS011;66363;49.828;7.856;2023-02-19T12:38:18;4.65;;;1.73;;
77302;SDS011;66363;49.828;7.856;2023-02-19T12:40:49;5.15;;;1.42;;
77302;SDS011;66363;49.828;7.856;2023-02-19T12:43:24;6.32;;;1.90;;
77302;SDS011;66363;49.828;7.856;2023-02-19T12:45:51;2.15;;;1.50;;
77302;SDS011;66363;49.828;7.856;2023-02-19T12:48:25;3.42;;;1.50;;
77302;SDS011;66363;49.828;7.856;2023-02-19T12:50:55;5.18;;;1.73;;
77302;SDS011;66363;49.828;7.856;2023-02-19T12:53:27;2.95;;;1.70;;
77302;SDS011;66363;49.828;7.856;2023-02-19T12:56:08;3.53;;;1.38;;
77302;SDS011;66363;49.828;7.856;2023-02-19T12:58:38;4.80;;;1.35;;
77302;SDS011;66363;49.828;7.856;2023-02-19T13:01:08;2.00;;;1.23;;
77302;SDS011;66363;49.828;7.856;2023-02-19T13:03:42;1.98;;;1.23;;
77302;SDS011;66363;49.828;7.856;2023-02-19T13:06:16;6.72;;;1.23;;
77302;SDS011;66363;49.828;7.856;2023-02-19T13:08:55;2.10;;;1.17;;
77302;SDS011;66363;49.828;7.856;2023-02-19T13:11:26;3.25;;;1.00;;
77302;SDS011;66363;49.828;7.856;2023-02-19T13:13:56;3.53;;;1.20;;
77302;SDS011;66363;49.828;7.856;2023-02-19T13:16:25;4.57;;;1.40;;
77302;SDS011;66363;49.828;7.856;2023-02-19T13:18:55;2.95;;;1.30;;
77302;SDS011;66363;49.828;7.856;2023-02-19T13:21:24;2.35;;;1.50;;
77302;SDS011;66363;49.828;7.856;2023-02-19T13:23:51;3.58;;;1.40;;
77302;SDS011;66363;49.828;7.856;2023-02-19T13:26:31;3.75;;;1.30;;
77302;SDS011;66363;49.828;7.856;2023-02-19T13:29:17;2.67;;;1.38;;
77302;SDS011;66363;49.828;7.856;2023-02-19T13:32:02;2.45;;;1.23;;
77302;SDS011;66363;49.828;7.856;2023-02-19T13:34:43;2.70;;;1.75;;
77302;SDS011;66363;49.828;7.856;2023-02-19T13:37:18;3.40;;;1.50;;
77302;SDS011;66363;49.828;7.856;2023-02-19T13:39:45;3.78;;;1.45;;
77302;SDS011;66363;49.828;7.856;2023-02-19T13:42:18;2.65;;;1.45;;
77302;SDS011;66363;49.828;7.856;2023-02-19T13:44:49;3.35;;;1.42;;
77302;SDS011;66363;49.828;7.856;2023-02-19T13:50:18;3.72;;;1.40;;
77302;SDS011;66363;49.828;7.856;2023-02-19T13:52:45;4.20;;;1.67;;
77302;SDS011;66363;49.828;7.856;2023-02-19T14:01:14;1.98;;;1.20;;
77302;SDS011;66363;49.828;7.856;2023-02-19T14:03:47;1.63;;;1.30;;
77302;SDS011;66363;49.828;7.856;2023-02-19T14:06:19;4.15;;;1.20;;
77302;SDS011;66363;49.828;7.856;2023-02-19T14:08:46;1.45;;;1.13;;
77302;SDS011;66363;49.828;7.856;2023-02-19T14:11:13;3.10;;;1.20;;
77302;SDS011;66363;49.828;7.856;2023-02-19T14:16:58;4.20;;;1.63;;
77302;SDS011;66363;49.828;7.856;2023-02-19T14:19:42;4.15;;;1.45;;
77302;SDS011;66363;49.828;7.856;2023-02-19T14:25:18;3.30;;;1.60;;
77302;SDS011;66363;49.828;7.856;2023-02-19T14:27:53;3.58;;;1.05;;
77302;SDS011;66363;49.828;7.856;2023-02-19T14:30:21;3.05;;;1.40;;
77302;SDS011;66363;49.828;7.856;2023-02-19T14:32:48;2.58;;;1.10;;
77302;SDS011;66363;49.828;7.856;2023-02-19T14:35:16;2.25;;;1.27;;
77302;SDS011;66363;49.828;7.856;2023-02-19T14:37:43;2.72;;;1.17;;
77302;SDS011;66363;49.828;7.856;2023-02-19T14:40:12;2.60;;;1.48;;
77302;SDS011;66363;49.828;7.856;2023-02-19T14:42:43;2.63;;;1.30;;
77302;SDS011;66363;49.828;7.856;2023-02-19T14:45:09;2.10;;;1.10;;
77302;SDS011;66363;49.828;7.856;2023-02-19T14:47:38;2.15;;;1.00;;
77302;SDS011;66363;49.828;7.856;2023-02-19T14:50:04;4.40;;;1.30;;
77302;SDS011;66363;49.828;7.856;2023-02-19T14:52:34;1.50;;;1.00;;
77302;SDS011;66363;49.828;7.856;2023-02-19T14:55:04;2.42;;;1.23;;
77302;SDS011;66363;49.828;7.856;2023-02-19T14:57:37;1.38;;;0.95;;
77302;SDS011;66363;49.828;7.856;2023-02-19T15:00:19;2.22;;;1.23;;
77302;SDS011;66363;49.828;7.856;2023-02-19T15:02:47;2.20;;;1.20;;
77302;SDS011;66363;49.828;7.856;2023-02-19T15:05:14;2.55;;;1.25;;
77302;SDS011;66363;49.828;7.856;2023-02-19T15:07:40;4.25;;;2.03;;
77302;SDS011;66363;49.828;7.856;2023-02-19T15:10:07;2.75;;;1.20;;
77302;SDS011;66363;49.828;7.856;2023-02-19T15:12:39;1.98;;;0.88;;
77302;SDS011;66363;49.828;7.856;2023-02-19T15:15:14;1.80;;;1.02;;
77302;SDS011;66363;49.828;7.856;2023-02-19T15:17:41;1.92;;;0.93;;
77302;SDS011;66363;49.828;7.856;2023-02-19T15:20:09;3.05;;;1.15;;
77302;SDS011;66363;49.828;7.856;2023-02-19T15:22:39;2.83;;;1.50;;
77302;SDS011;66363;49.828;7.856;2023-02-19T15:25:05;2.40;;;1.30;;
77302;SDS011;66363;49.828;7.856;2023-02-19T15:27:31;3.85;;;1.30;;
77302;SDS011;66363;49.828;7.856;2023-02-19T15:29:59;1.95;;;1.13;;
77302;SDS011;66363;49.828;7.856;2023-02-19T15:32:25;2.00;;;1.35;;
77302;SDS011;66363;49.828;7.856;2023-02-19T15:34:52;4.07;;;1.48;;